No particular awareness of the weather is required.    There are no Weather-warnings


Meteo18 Weather Cam more information Meteo18 Weather Cam


Thunder radar more information blitzortung!


Rain radar more information rain snow radar


Visit our other weather sites:

Template documentation
and downloads

And another site



Weather Underground History page Text

Daily Summary for June 13, 2017 Units:  English    Metric   Both
« Previous Day
Next Day »
Daily Weekly Monthly Yearly Custom
  High: Low: Average:
Temperature: TemperatureC °F 12.4 °F 19 °F
Dew Point: DewpointC °F 9.9 °F 12.2 °F
Humidity: Humidity % 48 % 66 %
Wind Speed: WindSpeedKMH mph 0.0 mph 7.4 mph
Wind Gust: WindSpeedGustKMH mph - -
Wind:- - East
Pressure: PressurehPa in 1016.1 in -
Precipitation: 0.0 in    
Historical Graphs
 
 
Tabular Data for June 13, 2017
Time Temperature Dew Point Pressure Wind Wind Speed Wind Gust Humidity Rainfall Rate (Hourly)
TemperatureC °F DewpointC °F PressurehPa in Calm     Humidity % HourlyPrecipMM in
00:02 15.9 °F 11.1 °F 1020.5 in NNW 4.8 mph 9.7 mph 73 % 0.0 in
00:07 15.8 °F 11.0 °F 1020.5 in NNW 1.6 mph 9.7 mph 73 % 0.0 in
00:12 15.6 °F 11.0 °F 1020.5 in NNW 3.2 mph 9.7 mph 74 % 0.0 in
00:17 15.6 °F 11.0 °F 1020.2 in Calm   9.7 mph 74 % 0.0 in
00:22 15.5 °F 10.9 °F 1020.2 in NNW 4.8 mph 6.4 mph 74 % 0.0 in
00:32 15.3 °F 10.9 °F 1020.2 in NNW 1.6 mph 4.8 mph 75 % 0.0 in
00:37 15.3 °F 10.9 °F 1020.2 in Calm   6.4 mph 75 % 0.0 in
00:42 15.1 °F 10.7 °F 1020.2 in North 1.6 mph 6.4 mph 75 % 0.0 in
00:52 15.0 °F 10.8 °F 1020.2 in NNW 3.2 mph 6.4 mph 76 % 0.0 in
00:57 15.1 °F 10.7 °F 1020.2 in NNW 4.8 mph 8.0 mph 75 % 0.0 in
01:02 15.1 °F 10.7 °F 1020.2 in NNE 4.8 mph 8.0 mph 75 % 0.0 in
01:12 15.1 °F 10.7 °F 1020.2 in NNW 4.8 mph 8.0 mph 75 % 0.0 in
01:17 15.0 °F 10.6 °F 1020.2 in NNW 3.2 mph 8.0 mph 75 % 0.0 in
01:22 14.9 °F 10.5 °F 1020.2 in Calm   8.0 mph 75 % 0.0 in
01:32 14.6 °F 10.4 °F 1020.2 in North 3.2 mph 8.0 mph 76 % 0.0 in
01:42 14.5 °F 10.5 °F 1020.2 in ENE 4.8 mph 6.4 mph 77 % 0.0 in
01:47 14.3 °F 10.3 °F 1020.2 in NNW 3.2 mph 6.4 mph 77 % 0.0 in
01:52 14.1 °F 10.3 °F 1020.2 in North 3.2 mph 6.4 mph 78 % 0.0 in
01:57 13.9 °F 10.3 °F 1020.2 in NNW 1.6 mph 6.4 mph 79 % 0.0 in
02:02 14.0 °F 10.2 °F 1020.2 in North 3.2 mph 8.0 mph 78 % 0.0 in
02:07 13.9 °F 10.1 °F 1020.2 in NE 4.8 mph 8.0 mph 78 % 0.0 in
02:12 13.7 °F 10.1 °F 1020.2 in NNW 3.2 mph 8.0 mph 79 % 0.0 in
02:17 13.8 °F 10.2 °F 1020.2 in NW 6.4 mph 6.4 mph 79 % 0.0 in
02:22 13.9 °F 10.3 °F 1020.2 in NNE 1.6 mph 8.0 mph 79 % 0.0 in
02:27 13.9 °F 10.1 °F 1020.2 in NE 3.2 mph 11.3 mph 78 % 0.0 in
02:32 14.0 °F 10.2 °F 1020.2 in NNW 4.8 mph 12.9 mph 78 % 0.0 in
02:37 13.9 °F 10.3 °F 1020.2 in NE 3.2 mph 12.9 mph 79 % 0.0 in
02:42 13.9 °F 10.3 °F 1019.9 in NNE 3.2 mph 12.9 mph 79 % 0.0 in
02:47 13.9 °F 10.3 °F 1019.9 in NW 3.2 mph 12.9 mph 79 % 0.0 in
02:52 13.8 °F 10.4 °F 1019.9 in NNE 3.2 mph 9.7 mph 80 % 0.0 in
02:57 13.7 °F 10.3 °F 1019.9 in NNE 3.2 mph 9.7 mph 80 % 0.0 in
03:02 13.7 °F 10.3 °F 1019.9 in North 4.8 mph 9.7 mph 80 % 0.0 in
03:12 13.7 °F 10.3 °F 1019.9 in NNW 6.4 mph 12.9 mph 80 % 0.0 in
03:17 13.7 °F 10.5 °F 1019.9 in NNW 3.2 mph 12.9 mph 81 % 0.0 in
03:22 13.6 °F 10.4 °F 1019.9 in NNW 1.6 mph 12.9 mph 81 % 0.0 in
03:32 13.4 °F 10.4 °F 1019.9 in NE 1.6 mph 12.9 mph 82 % 0.0 in
03:42 13.2 °F 10.4 °F 1019.9 in NE 3.2 mph 9.7 mph 83 % 0.0 in
03:47 13.2 °F 10.4 °F 1019.9 in NNW 1.6 mph 9.7 mph 83 % 0.0 in
03:52 13.3 °F 10.3 °F 1019.9 in NE 4.8 mph 9.7 mph 82 % 0.0 in
04:02 13.2 °F 10.4 °F 1019.9 in North 3.2 mph 9.7 mph 83 % 0.0 in
04:07 13.2 °F 10.4 °F 1019.9 in Calm   9.7 mph 83 % 0.0 in
04:12 13.2 °F 10.4 °F 1019.9 in ENE 4.8 mph 9.7 mph 83 % 0.0 in
04:17 13.1 °F 10.3 °F 1019.5 in NNW 3.2 mph 8.0 mph 83 % 0.0 in
04:22 13.1 °F 10.3 °F 1019.9 in North 3.2 mph 8.0 mph 83 % 0.0 in
04:27 13.1 °F 10.3 °F 1019.9 in North 4.8 mph 9.7 mph 83 % 0.0 in
04:32 13.0 °F 10.2 °F 1019.9 in NNE 4.8 mph 9.7 mph 83 % 0.0 in
04:37 12.9 °F 10.1 °F 1019.9 in North 8.0 mph 9.7 mph 83 % 0.0 in
04:42 12.9 °F 10.3 °F 1019.9 in NNW 4.8 mph 9.7 mph 84 % 0.0 in
04:47 12.9 °F 10.3 °F 1019.9 in Calm   9.7 mph 84 % 0.0 in
04:52 12.9 °F 10.3 °F 1019.9 in Calm   9.7 mph 84 % 0.0 in
04:57 12.8 °F 10.2 °F 1019.9 in NE 1.6 mph 9.7 mph 84 % 0.0 in
05:02 12.8 °F 10.2 °F 1019.9 in North 6.4 mph 9.7 mph 84 % 0.0 in
05:07 12.8 °F 10.2 °F 1019.9 in NNE 8.0 mph 8.0 mph 84 % 0.0 in
05:17 12.7 °F 10.1 °F 1019.5 in NNE 1.6 mph 8.0 mph 84 % 0.0 in
05:22 12.7 °F 10.1 °F 1019.5 in Calm   8.0 mph 84 % 0.0 in
05:27 12.7 °F 10.2 °F 1019.5 in NNW 1.6 mph 9.7 mph 85 % 0.0 in
05:32 12.6 °F 10.1 °F 1019.5 in NNW 4.8 mph 9.7 mph 85 % 0.0 in
05:42 12.6 °F 10.1 °F 1019.5 in North 4.8 mph 9.7 mph 85 % 0.0 in
05:52 12.6 °F 10.1 °F 1019.5 in NE 8.0 mph 9.7 mph 85 % 0.0 in
05:57 12.6 °F 10.1 °F 1019.5 in NNE 3.2 mph 9.7 mph 85 % 0.0 in
06:02 12.6 °F 10.1 °F 1019.5 in North 4.8 mph 11.3 mph 85 % 0.0 in
06:12 12.6 °F 10.1 °F 1019.5 in ENE 4.8 mph 11.3 mph 85 % 0.0 in
06:17 12.5 °F 10.0 °F 1019.5 in NNE 3.2 mph 11.3 mph 85 % 0.0 in
06:22 12.4 °F 9.9 °F 1019.5 in NNE 9.7 mph 11.3 mph 85 % 0.0 in
06:32 12.7 °F 10.2 °F 1019.5 in NE 4.8 mph 12.9 mph 85 % 0.0 in
06:37 12.8 °F 10.3 °F 1019.5 in NE 6.4 mph 12.9 mph 85 % 0.0 in
06:42 13.1 °F 10.5 °F 1019.5 in NW 1.6 mph 12.9 mph 84 % 0.0 in
06:47 13.3 °F 10.5 °F 1019.5 in NE 4.8 mph 12.9 mph 83 % 0.0 in
06:52 13.5 °F 10.5 °F 1019.5 in NE 11.3 mph 12.9 mph 82 % 0.0 in
06:57 13.7 °F 10.5 °F 1019.5 in North 3.2 mph 12.9 mph 81 % 0.0 in
07:02 13.7 °F 10.5 °F 1019.5 in North 6.4 mph 19.3 mph 81 % 0.0 in
07:12 13.9 °F 10.5 °F 1019.5 in NNE 11.3 mph 19.3 mph 80 % 0.0 in
07:17 14.0 °F 10.6 °F 1019.5 in NNE 8.0 mph 16.1 mph 80 % 0.0 in
07:27 14.3 °F 10.7 °F 1019.5 in NE 8.0 mph 19.3 mph 79 % 0.0 in
07:32 14.3 °F 10.7 °F 1019.9 in NNE 6.4 mph 19.3 mph 79 % 0.0 in
07:42 14.2 °F 10.6 °F 1019.9 in NE 11.3 mph 19.3 mph 79 % 0.0 in
07:52 14.2 °F 10.6 °F 1019.9 in NE 9.7 mph 19.3 mph 79 % 0.0 in
08:02 14.2 °F 10.8 °F 1019.5 in NE 6.4 mph 19.3 mph 80 % 0.0 in
08:12 14.3 °F 10.9 °F 1019.5 in NNE 12.9 mph 19.3 mph 80 % 0.0 in
08:17 14.4 °F 11.0 °F 1019.5 in NNE 12.9 mph 19.3 mph 80 % 0.0 in
08:22 14.4 °F 10.8 °F 1019.5 in NE 11.3 mph 19.3 mph 79 % 0.0 in
08:27 14.6 °F 11.0 °F 1019.5 in East 1.6 mph 19.3 mph 79 % 0.0 in
08:32 14.7 °F 11.1 °F 1019.5 in NE 4.8 mph 19.3 mph 79 % 0.0 in
08:37 14.8 °F 11.2 °F 1019.9 in NNE 9.7 mph 19.3 mph 79 % 0.0 in
08:47 15.1 °F 11.3 °F 1019.9 in NNE 8.0 mph 17.7 mph 78 % 0.0 in
08:52 15.2 °F 11.4 °F 1019.9 in Calm   17.7 mph 78 % 0.0 in
09:02 15.9 °F 11.7 °F 1019.5 in NE 16.1 mph 16.1 mph 76 % 0.0 in
09:12 16.3 °F 11.7 °F 1019.9 in NE 11.3 mph 17.7 mph 74 % 0.0 in
09:17 16.8 °F 12.1 °F 1019.9 in NNE 14.5 mph 19.3 mph 74 % 0.0 in
09:22 17.1 °F 12.0 °F 1019.5 in NNE 11.3 mph 19.3 mph 72 % 0.0 in
09:27 17.1 °F 11.6 °F 1019.5 in NE 14.5 mph 19.3 mph 70 % 0.0 in
09:32 17.2 °F 12.1 °F 1019.5 in ENE 4.8 mph 22.5 mph 72 % 0.0 in
09:37 17.5 °F 12.2 °F 1019.5 in NE 4.8 mph 22.5 mph 71 % 0.0 in
09:42 17.7 °F 12.2 °F 1019.5 in NE 6.4 mph 22.5 mph 70 % 0.0 in
09:52 17.9 °F 12.4 °F 1019.5 in NNE 12.9 mph 22.5 mph 70 % 0.0 in
09:57 17.9 °F 11.9 °F 1019.2 in East 11.3 mph 22.5 mph 68 % 0.0 in
10:02 18.1 °F 12.5 °F 1019.5 in NNE 3.2 mph 22.5 mph 70 % 0.0 in
10:12 18.1 °F 12.3 °F 1019.5 in ENE 9.7 mph 20.9 mph 69 % 0.0 in
10:17 17.9 °F 12.1 °F 1019.5 in NE 14.5 mph 20.9 mph 69 % 0.0 in
10:22 18.0 °F 12.4 °F 1019.5 in NE 11.3 mph 20.9 mph 70 % 0.0 in
10:32 18.4 °F 12.6 °F 1019.5 in NE 11.3 mph 20.9 mph 69 % 0.0 in
10:42 18.9 °F 12.4 °F 1019.5 in NNE 16.1 mph 20.9 mph 66 % 0.0 in
10:52 18.9 °F 12.2 °F 1019.5 in NE 8.0 mph 22.5 mph 65 % 0.0 in
10:57 18.9 °F 11.9 °F 1019.5 in NE 17.7 mph 22.5 mph 64 % 0.0 in
11:02 18.8 °F 11.8 °F 1019.5 in NE 16.1 mph 25.7 mph 64 % 0.0 in
11:07 18.8 °F 12.1 °F 1019.5 in ENE 9.7 mph 25.7 mph 65 % 0.0 in
11:12 18.9 °F 12.2 °F 1019.5 in NE 19.3 mph 25.7 mph 65 % 0.0 in
11:17 19.3 °F 12.3 °F 1019.5 in NNE 14.5 mph 24.1 mph 64 % 0.0 in
11:22 19.9 °F 12.6 °F 1019.5 in ENE 16.1 mph 22.5 mph 63 % 0.0 in
11:32 20.3 °F 12.5 °F 1019.2 in NE 8.0 mph 22.5 mph 61 % 0.0 in
11:42 20.8 °F 12.5 °F 1019.2 in NE 17.7 mph 27.4 mph 59 % 0.0 in
11:47 20.7 °F 12.4 °F 1019.2 in ENE 9.7 mph 27.4 mph 59 % 0.0 in
11:52 20.8 °F 12.0 °F 1019.2 in NE 12.9 mph 24.1 mph 57 % 0.0 in
11:57 20.8 °F 12.2 °F 1019.2 in ENE 11.3 mph 25.7 mph 58 % 0.0 in
12:02 21.0 °F 12.4 °F 1019.2 in ENE 4.8 mph 25.7 mph 58 % 0.0 in
12:12 21.2 °F 12.3 °F 1019.2 in NE 12.9 mph 22.5 mph 57 % 0.0 in
12:17 21.3 °F 12.7 °F 1018.8 in NE 11.3 mph 22.5 mph 58 % 0.0 in
12:22 21.5 °F 12.1 °F 1018.8 in NE 16.1 mph 20.9 mph 55 % 0.0 in
12:27 21.7 °F 12.8 °F 1018.8 in NNE 16.1 mph 20.9 mph 57 % 0.0 in
12:32 21.7 °F 12.3 °F 1018.8 in ENE 12.9 mph 25.7 mph 55 % 0.0 in
12:42 21.9 °F 13.0 °F 1018.8 in NNE 20.9 mph 24.1 mph 57 % 0.0 in
12:47 22.0 °F 12.5 °F 1018.8 in NNE 20.9 mph 24.1 mph 55 % 0.0 in
12:52 22.0 °F 12.5 °F 1018.8 in NE 4.8 mph 24.1 mph 55 % 0.0 in
12:57 22.0 °F 12.8 °F 1018.8 in NE 9.7 mph 24.1 mph 56 % 0.0 in
13:02 22.0 °F 12.5 °F 1018.8 in ENE 9.7 mph 24.1 mph 55 % 0.0 in
13:07 22.6 °F 13.4 °F 1018.8 in ENE 9.7 mph 19.3 mph 56 % 0.0 in
13:12 22.7 °F 12.6 °F 1018.8 in Calm   19.3 mph 53 % 0.0 in
13:17 22.8 °F 13.0 °F 1018.8 in NE 12.9 mph 19.3 mph 54 % 0.0 in
13:22 22.9 °F 13.1 °F 1018.5 in ENE 12.9 mph 19.3 mph 54 % 0.0 in
13:32 22.7 °F 12.9 °F 1018.5 in ENE 11.3 mph 24.1 mph 54 % 0.0 in
13:37 22.7 °F 13.2 °F 1018.5 in NE 8.0 mph 24.1 mph 55 % 0.0 in
13:42 22.8 °F 12.7 °F 1018.5 in NNE 9.7 mph 24.1 mph 53 % 0.0 in
13:52 22.8 °F 12.7 °F 1018.5 in NNE 9.7 mph 24.1 mph 53 % 0.0 in
13:57 22.8 °F 13.0 °F 1018.5 in North 14.5 mph 24.1 mph 54 % 0.0 in
14:02 23.1 °F 13.3 °F 1018.5 in ENE 11.3 mph 24.1 mph 54 % 0.0 in
14:07 23.2 °F 13.4 °F 1018.5 in North 8.0 mph 22.5 mph 54 % 0.0 in
14:12 23.4 °F 13.3 °F 1018.5 in NE 12.9 mph 19.3 mph 53 % 0.0 in
14:17 23.4 °F 13.0 °F 1018.5 in NE 17.7 mph 19.3 mph 52 % 0.0 in
14:22 23.7 °F 13.6 °F 1018.5 in NNE 9.7 mph 20.9 mph 53 % 0.0 in
14:32 23.9 °F 12.8 °F 1018.5 in ENE 8.0 mph 17.7 mph 50 % 0.0 in
14:42 24.2 °F 13.7 °F 1018.5 in NE 9.7 mph 16.1 mph 52 % 0.0 in
14:52 24.4 °F 13.6 °F 1018.2 in NE 6.4 mph 19.3 mph 51 % 0.0 in
14:57 24.4 °F 13.6 °F 1018.2 in ENE 8.0 mph 19.3 mph 51 % 0.0 in
15:02 24.4 °F 13.3 °F 1018.2 in NE 6.4 mph 19.3 mph 50 % 0.0 in
15:12 24.3 °F 12.9 °F 1018.2 in Calm   17.7 mph 49 % 0.0 in
15:22 24.3 °F 13.2 °F 1018.2 in East 3.2 mph 17.7 mph 50 % 0.0 in
15:32 24.3 °F 13.5 °F 1017.8 in ENE 12.9 mph 19.3 mph 51 % 0.0 in
15:37 24.3 °F 13.2 °F 1017.8 in ENE 9.7 mph 19.3 mph 50 % 0.0 in
15:42 24.4 °F 13.9 °F 1017.5 in ENE 11.3 mph 19.3 mph 52 % 0.0 in
15:52 24.3 °F 13.8 °F 1017.5 in NNE 6.4 mph 17.7 mph 52 % 0.0 in
15:57 24.6 °F 13.8 °F 1017.5 in East 9.7 mph 19.3 mph 51 % 0.0 in
16:02 24.9 °F 14.1 °F 1017.5 in NE 9.7 mph 19.3 mph 51 % 0.0 in
16:07 24.8 °F 14.0 °F 1017.5 in NE 3.2 mph 19.3 mph 51 % 0.0 in
16:12 24.9 °F 13.8 °F 1017.2 in NE 8.0 mph 17.7 mph 50 % 0.0 in
16:17 24.9 °F 13.5 °F 1017.5 in NNW 9.7 mph 17.7 mph 49 % 0.0 in
16:22 24.8 °F 13.7 °F 1017.5 in NE 8.0 mph 16.1 mph 50 % 0.0 in
16:32 24.7 °F 13.9 °F 1017.2 in ENE 3.2 mph 16.1 mph 51 % 0.0 in
16:37 25.1 °F 13.9 °F 1017.2 in NE 3.2 mph 16.1 mph 50 % 0.0 in
16:42 25.1 °F 13.6 °F 1017.2 in ENE 9.7 mph 16.1 mph 49 % 0.0 in
16:52 25.1 °F 13.9 °F 1017.2 in NE 4.8 mph 14.5 mph 50 % 0.0 in
16:57 25.0 °F 14.2 °F 1017.2 in ENE 9.7 mph 14.5 mph 51 % 0.0 in
17:02 25.1 °F 13.6 °F 1017.2 in ENE 4.8 mph 14.5 mph 49 % 0.0 in
17:07 25.0 °F 13.9 °F 1017.2 in NE 11.3 mph 14.5 mph 50 % 0.0 in
17:12 24.9 °F 14.1 °F 1017.2 in NE 3.2 mph 14.5 mph 51 % 0.0 in
17:17 25.1 °F 13.6 °F 1017.2 in ENE 8.0 mph 12.9 mph 49 % 0.0 in
17:22 24.9 °F 14.1 °F 1016.8 in NE 3.2 mph 16.1 mph 51 % 0.0 in
17:27 25.2 °F 14.0 °F 1016.8 in NNE 4.8 mph 16.1 mph 50 % 0.0 in
17:32 25.3 °F 14.1 °F 1016.8 in North 3.2 mph 16.1 mph 50 % 0.0 in
17:37 25.4 °F 13.6 °F 1016.8 in ENE 4.8 mph 14.5 mph 48 % 0.0 in
17:42 25.3 °F 13.5 °F 1016.8 in NE 9.7 mph 12.9 mph 48 % 0.0 in
17:47 25.4 °F 14.2 °F 1016.8 in ENE 6.4 mph 14.5 mph 50 % 0.0 in
17:52 25.4 °F 13.9 °F 1016.8 in ENE 6.4 mph 16.1 mph 49 % 0.0 in
17:57 25.6 °F 14.4 °F 1016.8 in NE 8.0 mph 16.1 mph 50 % 0.0 in
18:02 25.4 °F 14.2 °F 1016.8 in NNE 4.8 mph 16.1 mph 50 % 0.0 in
18:07 25.4 °F 13.9 °F 1016.8 in East 4.8 mph 14.5 mph 49 % 0.0 in
18:12 25.5 °F 14.3 °F 1016.8 in NE 1.6 mph 14.5 mph 50 % 0.0 in
18:17 25.8 °F 14.3 °F 1016.5 in NNE 6.4 mph 14.5 mph 49 % 0.0 in
18:27 26.0 °F 14.1 °F 1016.5 in NE 9.7 mph 14.5 mph 48 % 0.0 in
18:32 25.8 °F 14.3 °F 1016.1 in NNE 8.0 mph 14.5 mph 49 % 0.0 in
18:37 25.7 °F 14.2 °F 1016.1 in North 4.8 mph 25.7 mph 49 % 0.0 in
18:42 25.6 °F 14.1 °F 1016.1 in NE 4.8 mph 25.7 mph 49 % 0.0 in
18:47 25.5 °F 14.0 °F 1016.1 in NNE 11.3 mph 20.9 mph 49 % 0.0 in
18:52 25.6 °F 14.7 °F 1016.1 in NNE 9.7 mph 20.9 mph 51 % 0.0 in
19:02 25.2 °F 14.6 °F 1016.5 in North 6.4 mph 20.9 mph 52 % 0.0 in
19:12 25.1 °F 15.1 °F 1016.5 in NE 8.0 mph 19.3 mph 54 % 0.0 in
19:17 25.0 °F 15.0 °F 1016.5 in ENE 6.4 mph 19.3 mph 54 % 0.0 in
19:22 25.1 °F 15.1 °F 1016.8 in NNE 12.9 mph 17.7 mph 54 % 0.0 in
19:32 24.8 °F 14.9 °F 1016.5 in NE 16.1 mph 20.9 mph 54 % 0.0 in
19:37 24.7 °F 14.8 °F 1016.8 in NE 9.7 mph 20.9 mph 54 % 0.0 in
19:42 24.8 °F 14.9 °F 1017.2 in ENE 8.0 mph 20.9 mph 54 % 0.0 in
19:47 24.6 °F 14.7 °F 1017.2 in NE 14.5 mph 20.9 mph 54 % 0.0 in
19:52 24.4 °F 14.8 °F 1017.2 in ENE 6.4 mph 19.3 mph 55 % 0.0 in
19:57 24.2 °F 14.6 °F 1017.2 in North 12.9 mph 19.3 mph 55 % 0.0 in
20:02 24.0 °F 14.7 °F 1017.2 in NE 8.0 mph 19.3 mph 56 % 0.0 in
20:07 23.8 °F 14.8 °F 1017.2 in NNW 6.4 mph 19.3 mph 57 % 0.0 in
20:12 23.6 °F 14.9 °F 1017.2 in NNE 6.4 mph 19.3 mph 58 % 0.0 in
20:17 23.3 °F 14.8 °F 1017.2 in North 4.8 mph 14.5 mph 59 % 0.0 in
20:22 23.1 °F 14.4 °F 1017.5 in NNW 8.0 mph 11.3 mph 58 % 0.0 in
20:32 22.7 °F 14.0 °F 1017.5 in NNE 6.4 mph 12.9 mph 58 % 0.0 in
20:37 22.6 °F 14.2 °F 1017.5 in NNW 8.0 mph 12.9 mph 59 % 0.0 in
20:42 22.4 °F 14.0 °F 1017.5 in NNW 8.0 mph 12.9 mph 59 % 0.0 in
20:47 22.3 °F 13.9 °F 1017.5 in NNW 8.0 mph 14.5 mph 59 % 0.0 in
20:52 22.2 °F 13.8 °F 1017.5 in NNE 8.0 mph 14.5 mph 59 % 0.0 in
20:57 21.9 °F 13.5 °F 1017.2 in North 12.9 mph 16.1 mph 59 % 0.0 in
21:02 21.8 °F 13.4 °F 1017.2 in NNE 6.4 mph 16.1 mph 59 % 0.0 in
21:12 21.6 °F 13.0 °F 1017.2 in NNE 8.0 mph 22.5 mph 58 % 0.0 in
21:17 21.5 °F 12.9 °F 1016.8 in NNE 12.9 mph 22.5 mph 58 % 0.0 in
21:22 21.5 °F 12.6 °F 1016.5 in NE 20.9 mph 22.5 mph 57 % 0.0 in
21:32 21.5 °F 12.4 °F 1016.1 in ENE 11.3 mph 22.5 mph 56 % 0.0 in
21:37 21.5 °F 12.4 °F 1016.5 in NNE 17.7 mph 25.7 mph 56 % 0.0 in
21:42 21.4 °F 12.3 °F 1016.5 in NNE 9.7 mph 25.7 mph 56 % 0.0 in
21:52 21.1 °F 12.5 °F 1016.5 in WNW 6.4 mph 22.5 mph 58 % 0.0 in
21:57 21.0 °F 12.9 °F 1016.5 in NNE 3.2 mph 16.1 mph 60 % 0.0 in
22:02 20.8 °F 13.3 °F 1016.5 in NNE 12.9 mph 19.3 mph 62 % 0.0 in
22:07 20.7 °F 13.2 °F 1016.5 in North 9.7 mph 22.5 mph 62 % 0.0 in
22:12 20.7 °F 13.2 °F 1016.8 in North 4.8 mph 22.5 mph 62 % 0.0 in
22:17 20.6 °F 13.3 °F 1017.2 in NE 20.9 mph 22.5 mph 63 % 0.0 in
22:22 20.6 °F 13.3 °F 1017.2 in NE 16.1 mph 24.1 mph 63 % 0.0 in
22:32 20.3 °F 13.3 °F 1017.5 in NNE 8.0 mph 24.1 mph 64 % 0.0 in
22:37 20.3 °F 13.3 °F 1017.5 in ENE 8.0 mph 20.9 mph 64 % 0.0 in
22:42 20.2 °F 13.4 °F 1017.2 in NE 11.3 mph 20.9 mph 65 % 0.0 in
22:52 20.0 °F 13.5 °F 1017.8 in NNE 8.0 mph 25.7 mph 66 % 0.0 in
22:57 19.9 °F 13.6 °F 1017.8 in NE 4.8 mph 25.7 mph 67 % 0.0 in
23:02 19.8 °F 13.7 °F 1017.8 in NE 12.9 mph 25.7 mph 68 % 0.0 in
23:12 19.7 °F 13.9 °F 1018.2 in North 6.4 mph 14.5 mph 69 % 0.0 in
23:22 19.5 °F 13.7 °F 1018.8 in NNE 1.6 mph 14.5 mph 69 % 0.0 in
23:27 19.4 °F 13.8 °F 1018.8 in Calm   14.5 mph 70 % 0.0 in
23:32 19.4 °F 14.0 °F 1018.8 in Calm   14.5 mph 71 % 0.0 in
23:37 19.2 °F 14.0 °F 1018.8 in Calm   6.4 mph 72 % 0.0 in
23:42 19.0 °F 14.3 °F 1018.8 in NE 3.2 mph 6.4 mph 74 % 0.0 in
23:47 18.8 °F 13.9 °F 1018.5 in ENE 4.8 mph 11.3 mph 73 % 0.0 in
23:52 18.7 °F 14.4 °F 1017.8 in NE 4.8 mph 17.7 mph 76 % 0.0 in
Meteo18
Compliments of Weather Underground - 4 mb

Script developed by  Jim McMurry - jmcmurry@mwt.net Adapted for the template by  Wim van der Kuil - Leuven-Template.eu

You find our weather info also at:

European Weather Network

Weather Underground

Equipment we use:

Weather-station
Davis Vue

Weather-program
Meteobridge

Weather-server
Raspberry PI 2 B+

Provider
1 and 1

Davis Vue

Meteobridge

Raspberry PI 2 B+

1 and 1